createdAt,value
2022-11-05T00:00:42.642Z,22.06
2022-11-05T00:03:09.825Z,22.00
2022-11-05T00:05:37.085Z,22.00
2022-11-05T00:08:04.024Z,22.00
2022-11-05T00:10:30.924Z,21.94
2022-11-05T00:12:57.825Z,21.88
2022-11-05T00:15:24.778Z,21.88
2022-11-05T00:17:51.666Z,21.81
2022-11-05T00:20:18.566Z,21.81
2022-11-05T00:22:45.466Z,21.81
2022-11-05T00:25:12.365Z,21.75
2022-11-05T00:27:39.281Z,21.75
2022-11-05T00:30:06.197Z,21.69
2022-11-05T00:32:33.111Z,21.69
2022-11-05T00:35:00.037Z,21.69
2022-11-05T00:37:27.025Z,21.69
2022-11-05T00:39:53.962Z,21.63
2022-11-05T00:42:20.870Z,21.63
2022-11-05T00:44:47.769Z,21.63
2022-11-05T00:47:14.689Z,21.63
2022-11-05T00:49:41.594Z,21.63
2022-11-05T00:52:08.505Z,21.63
2022-11-05T00:54:35.422Z,21.63
2022-11-05T00:57:04.774Z,21.63
2022-11-05T00:59:31.866Z,21.63
2022-11-05T01:01:58.944Z,21.56
2022-11-05T01:04:25.989Z,21.56
2022-11-05T01:06:52.892Z,21.56
2022-11-05T01:09:19.802Z,21.56
2022-11-05T01:11:46.702Z,21.56
2022-11-05T01:14:13.604Z,21.56
2022-11-05T01:16:40.513Z,21.50
2022-11-05T01:19:07.426Z,21.50
2022-11-05T01:21:34.336Z,21.44
2022-11-05T01:24:01.293Z,21.44
2022-11-05T01:26:28.201Z,21.44
2022-11-05T01:28:55.141Z,21.44
2022-11-05T01:31:22.087Z,21.38
2022-11-05T01:33:49.002Z,21.38
2022-11-05T01:36:15.919Z,21.38
2022-11-05T01:38:42.835Z,21.31
2022-11-05T01:41:09.746Z,21.31
2022-11-05T01:43:36.661Z,21.31
2022-11-05T01:46:03.556Z,21.31
2022-11-05T01:48:30.470Z,21.25
2022-11-05T01:50:57.363Z,21.25
2022-11-05T01:53:24.285Z,21.25
2022-11-05T01:55:51.187Z,21.19
2022-11-05T01:58:18.276Z,21.19
2022-11-05T02:00:45.286Z,21.19
2022-11-05T02:03:12.461Z,21.13
2022-11-05T02:05:39.753Z,21.13
2022-11-05T02:08:06.710Z,21.13
2022-11-05T02:10:33.621Z,21.06
2022-11-05T02:13:00.530Z,21.06
2022-11-05T02:15:27.453Z,21.06
2022-11-05T02:17:54.367Z,21.00
2022-11-05T02:20:21.262Z,21.00
2022-11-05T02:22:48.181Z,21.00
2022-11-05T02:25:15.095Z,21.00
2022-11-05T02:27:42.004Z,20.94
2022-11-05T02:30:08.930Z,20.94
2022-11-05T02:32:35.858Z,20.94
2022-11-05T02:35:02.773Z,20.94
2022-11-05T02:37:29.696Z,20.88
2022-11-05T02:39:56.590Z,20.88
2022-11-05T02:42:23.487Z,20.88
2022-11-05T02:44:50.437Z,20.81
2022-11-05T02:47:18.384Z,20.81
2022-11-05T02:49:45.477Z,20.81
2022-11-05T02:52:12.390Z,20.81
2022-11-05T02:54:39.313Z,20.75
2022-11-05T02:57:06.205Z,20.75
2022-11-05T02:59:33.138Z,20.75
2022-11-05T03:02:00.165Z,20.69
2022-11-05T03:04:27.235Z,20.69
2022-11-05T03:06:54.170Z,20.69
2022-11-05T03:09:21.073Z,20.69
2022-11-05T03:11:48.001Z,20.69
2022-11-05T03:14:14.970Z,20.63
2022-11-05T03:16:41.869Z,20.63
2022-11-05T03:19:08.776Z,20.63
2022-11-05T03:21:35.696Z,20.63
2022-11-05T03:24:02.613Z,20.56
2022-11-05T03:26:29.677Z,20.56
2022-11-05T03:28:56.583Z,20.56
2022-11-05T03:31:23.522Z,20.56
2022-11-05T03:33:50.444Z,20.56
2022-11-05T03:36:17.357Z,20.56
2022-11-05T03:38:44.251Z,20.56
2022-11-05T03:41:11.184Z,20.56
2022-11-05T03:43:38.090Z,20.56
2022-11-05T03:46:05.010Z,20.56
2022-11-05T03:48:31.952Z,20.56
2022-11-05T03:50:59.072Z,20.56
2022-11-05T03:53:25.993Z,20.56
2022-11-05T03:55:52.902Z,20.56
2022-11-05T03:58:19.801Z,20.56
2022-11-05T04:00:46.707Z,20.56
2022-11-05T04:03:13.860Z,20.56
2022-11-05T04:05:40.887Z,20.56
2022-11-05T04:08:13.917Z,20.56
2022-11-05T04:10:41.318Z,20.56
2022-11-05T04:13:08.381Z,20.56
2022-11-05T04:15:35.468Z,20.56
2022-11-05T04:18:02.399Z,20.56
2022-11-05T04:20:29.373Z,20.56
2022-11-05T04:22:56.280Z,20.56
2022-11-05T04:25:23.198Z,20.50
2022-11-05T04:27:50.103Z,20.50
2022-11-05T04:30:17.026Z,20.50
2022-11-05T04:32:43.951Z,20.50
2022-11-05T04:35:10.847Z,20.50
2022-11-05T04:37:37.776Z,20.50
2022-11-05T04:40:04.670Z,20.56
2022-11-05T04:42:31.589Z,20.31
2022-11-05T04:44:58.492Z,20.19
2022-11-05T04:47:25.377Z,20.06
2022-11-05T04:49:52.309Z,20.00
2022-11-05T04:52:19.201Z,19.94
2022-11-05T04:54:46.142Z,19.94
2022-11-05T04:57:13.049Z,19.88
2022-11-05T04:59:39.959Z,19.88
2022-11-05T05:02:06.905Z,19.88
2022-11-05T05:04:33.862Z,20.13
2022-11-05T05:07:00.806Z,23.06
2022-11-05T05:09:27.714Z,26.00
2022-11-05T05:11:54.612Z,27.19
2022-11-05T05:14:21.525Z,26.63
2022-11-05T05:16:48.417Z,25.75
2022-11-05T05:19:15.349Z,25.50
2022-11-05T05:21:42.265Z,26.69
2022-11-05T05:24:09.212Z,27.81
2022-11-05T05:26:36.116Z,28.38
2022-11-05T05:29:03.076Z,27.94
2022-11-05T05:31:29.981Z,27.38
2022-11-05T05:33:56.881Z,27.94
2022-11-05T05:36:23.829Z,28.69
2022-11-05T05:38:50.742Z,29.13
2022-11-05T05:41:17.658Z,29.44
2022-11-05T05:43:44.574Z,29.75
2022-11-05T05:46:11.481Z,30.00
2022-11-05T05:48:38.402Z,30.25
2022-11-05T05:51:05.298Z,30.50
2022-11-05T05:53:32.199Z,30.56
2022-11-05T05:55:59.118Z,30.63
2022-11-05T05:58:26.034Z,30.56
2022-11-05T06:00:52.950Z,30.63
2022-11-05T06:03:19.857Z,30.56
2022-11-05T06:05:46.773Z,30.56
2022-11-05T06:08:13.681Z,30.56
2022-11-05T06:10:40.653Z,30.50
2022-11-05T06:13:07.735Z,30.44
2022-11-05T06:15:36.026Z,30.38
2022-11-05T06:18:03.194Z,30.31
2022-11-05T06:20:30.154Z,30.19
2022-11-05T06:22:57.062Z,30.06
2022-11-05T06:25:24.060Z,29.56
2022-11-05T06:27:50.987Z,29.06
2022-11-05T06:30:17.892Z,29.06
2022-11-05T06:32:44.801Z,29.19
2022-11-05T06:35:11.721Z,29.25
2022-11-05T06:37:38.643Z,29.31
2022-11-05T06:40:05.541Z,29.38
2022-11-05T06:42:32.462Z,29.38
2022-11-05T06:44:59.354Z,29.31
2022-11-05T06:47:26.282Z,29.31
2022-11-05T06:49:53.210Z,29.31
2022-11-05T06:52:20.115Z,29.31
2022-11-05T06:54:47.032Z,29.25
2022-11-05T06:57:13.941Z,28.88
2022-11-05T06:59:41.018Z,28.94
2022-11-05T07:02:08.047Z,29.19
2022-11-05T07:04:35.019Z,29.38
2022-11-05T07:07:01.950Z,29.44
2022-11-05T07:09:28.866Z,29.50
2022-11-05T07:11:55.812Z,29.56
2022-11-05T07:14:22.717Z,29.50
2022-11-05T07:16:49.650Z,29.44
2022-11-05T07:19:16.544Z,29.38
2022-11-05T07:21:43.446Z,29.44
2022-11-05T07:24:10.396Z,29.06
2022-11-05T07:26:37.299Z,28.94
2022-11-05T07:29:04.213Z,29.31
2022-11-05T07:31:31.125Z,29.50
2022-11-05T07:33:58.033Z,29.69
2022-11-05T07:36:24.977Z,29.81
2022-11-05T07:38:56.074Z,29.88
2022-11-05T07:41:25.978Z,29.88
2022-11-05T07:43:52.879Z,29.88
2022-11-05T07:46:19.781Z,29.81
2022-11-05T07:48:46.714Z,29.75
2022-11-05T07:51:13.645Z,29.69
2022-11-05T07:53:45.093Z,29.44
2022-11-05T07:56:12.480Z,29.44
2022-11-05T07:58:39.409Z,29.50
2022-11-05T08:01:06.440Z,29.63
2022-11-05T08:03:33.489Z,29.69
2022-11-05T08:06:00.490Z,29.75
2022-11-05T08:08:27.408Z,29.69
2022-11-05T08:10:54.316Z,29.63
2022-11-05T08:13:21.229Z,29.63
2022-11-05T08:15:48.139Z,29.56
2022-11-05T08:18:15.066Z,29.44
2022-11-05T08:20:41.963Z,29.38
2022-11-05T08:23:09.724Z,29.19
2022-11-05T08:25:36.928Z,29.19
2022-11-05T08:28:03.817Z,29.44
2022-11-05T08:30:30.732Z,29.56
2022-11-05T08:32:57.624Z,29.69
2022-11-05T08:35:24.584Z,29.75
2022-11-05T08:37:51.489Z,29.81
2022-11-05T08:40:18.397Z,29.81
2022-11-05T08:42:45.330Z,29.75
2022-11-05T08:45:12.235Z,29.69
2022-11-05T08:47:39.134Z,29.69
2022-11-05T08:50:06.046Z,29.63
2022-11-05T08:52:32.942Z,29.50
2022-11-05T08:54:59.862Z,29.44
2022-11-05T08:57:26.779Z,29.44
2022-11-05T08:59:53.698Z,29.44
2022-11-05T09:02:20.732Z,29.50
2022-11-05T09:04:47.766Z,29.56
2022-11-05T09:07:14.666Z,29.56
2022-11-05T09:09:41.589Z,29.56
2022-11-05T09:12:12.950Z,29.50
2022-11-05T09:14:40.122Z,29.44
2022-11-05T09:17:07.062Z,29.38
2022-11-05T09:19:39.394Z,29.31
2022-11-05T09:22:06.798Z,29.31
2022-11-05T09:24:33.760Z,29.25
2022-11-05T09:27:00.689Z,29.00
2022-11-05T09:29:27.594Z,29.00
2022-11-05T09:31:54.498Z,29.19
2022-11-05T09:34:21.404Z,29.38
2022-11-05T09:36:50.321Z,29.44
2022-11-05T09:39:17.263Z,29.50
2022-11-05T09:41:44.192Z,29.50
2022-11-05T09:44:11.102Z,29.50
2022-11-05T09:46:38.018Z,29.44
2022-11-05T09:49:04.935Z,29.38
2022-11-05T09:51:31.854Z,29.31
2022-11-05T09:53:58.759Z,29.06
2022-11-05T09:56:25.720Z,28.81
2022-11-05T09:58:52.623Z,29.06
2022-11-05T10:01:19.665Z,29.25
2022-11-05T10:03:46.715Z,29.38
2022-11-05T10:06:13.650Z,29.50
2022-11-05T10:08:40.590Z,29.56
2022-11-05T10:11:07.509Z,29.56
2022-11-05T10:13:34.442Z,29.56
2022-11-05T10:16:01.352Z,29.56
2022-11-05T10:18:28.253Z,29.50
2022-11-05T10:20:55.149Z,29.44
2022-11-05T10:23:22.046Z,29.38
2022-11-05T10:25:48.945Z,29.13
2022-11-05T10:28:15.848Z,29.19
2022-11-05T10:30:42.762Z,29.38
2022-11-05T10:33:09.802Z,29.50
2022-11-05T10:35:37.051Z,29.63
2022-11-05T10:38:03.973Z,29.69
2022-11-05T10:40:30.871Z,29.69
2022-11-05T10:42:57.761Z,29.69
2022-11-05T10:45:24.662Z,29.63
2022-11-05T10:47:51.580Z,29.63
2022-11-05T10:50:18.541Z,29.56
2022-11-05T10:52:45.481Z,29.50
2022-11-05T10:55:12.399Z,29.38
2022-11-05T10:57:39.301Z,29.25
2022-11-05T11:00:06.214Z,29.19
2022-11-05T11:02:33.199Z,29.19
2022-11-05T11:05:00.140Z,29.19
2022-11-05T11:07:27.068Z,29.19
2022-11-05T11:09:53.983Z,29.13
2022-11-05T11:12:20.895Z,29.19
2022-11-05T11:14:47.854Z,29.19
2022-11-05T11:17:14.769Z,29.19
2022-11-05T11:19:41.674Z,29.19
2022-11-05T11:22:08.583Z,29.19
2022-11-05T11:24:35.492Z,29.19
2022-11-05T11:27:02.420Z,29.00
2022-11-05T11:29:29.330Z,28.69
2022-11-05T11:31:56.235Z,28.88
2022-11-05T11:34:23.148Z,29.19
2022-11-05T11:36:50.079Z,29.44
2022-11-05T11:39:16.986Z,29.63
2022-11-05T11:41:43.883Z,29.81
2022-11-05T11:44:10.806Z,29.94
2022-11-05T11:46:37.744Z,30.00
2022-11-05T11:49:04.652Z,30.00
2022-11-05T11:51:31.580Z,29.94
2022-11-05T11:53:58.468Z,29.94
2022-11-05T11:56:25.372Z,29.88
2022-11-05T11:58:52.269Z,29.88
2022-11-05T12:01:19.199Z,29.88
2022-11-05T12:03:46.128Z,30.06
2022-11-05T12:06:13.020Z,30.19
2022-11-05T12:08:44.484Z,30.31
2022-11-05T12:11:12.624Z,30.44
2022-11-05T12:13:39.512Z,30.44
2022-11-05T12:16:06.436Z,30.38
2022-11-05T12:18:33.346Z,30.31
2022-11-05T12:21:00.258Z,30.31
2022-11-05T12:23:27.176Z,30.25
2022-11-05T12:25:54.085Z,30.19
2022-11-05T12:28:20.986Z,30.06
2022-11-05T12:30:47.910Z,30.00
2022-11-05T12:33:15.372Z,29.69
2022-11-05T12:35:46.991Z,29.19
2022-11-05T12:38:15.832Z,29.00
2022-11-05T12:40:42.743Z,29.06
2022-11-05T12:43:11.866Z,29.13
2022-11-05T12:45:39.121Z,29.13
2022-11-05T12:48:06.040Z,29.13
2022-11-05T12:50:32.949Z,29.06
2022-11-05T12:52:59.845Z,29.13
2022-11-05T12:55:26.754Z,29.13
2022-11-05T12:57:53.649Z,29.13
2022-11-05T13:00:20.570Z,29.13
2022-11-05T13:02:47.539Z,29.13
2022-11-05T13:05:14.490Z,29.13
2022-11-05T13:07:41.401Z,29.06
2022-11-05T13:10:08.326Z,28.81
2022-11-05T13:12:35.229Z,28.94
2022-11-05T13:15:02.146Z,29.13
2022-11-05T13:17:29.033Z,29.25
2022-11-05T13:19:55.938Z,29.38
2022-11-05T13:22:22.871Z,29.44
2022-11-05T13:24:49.799Z,29.44
2022-11-05T13:27:16.725Z,29.38
2022-11-05T13:29:43.667Z,29.38
2022-11-05T13:32:10.577Z,29.31
2022-11-05T13:34:37.925Z,29.25
2022-11-05T13:37:04.902Z,29.13
2022-11-05T13:39:31.806Z,28.81
2022-11-05T13:41:58.717Z,28.75
2022-11-05T13:44:25.615Z,28.88
2022-11-05T13:46:52.556Z,29.00
2022-11-05T13:49:19.461Z,29.06
2022-11-05T13:51:46.361Z,29.13
2022-11-05T13:54:13.302Z,29.06
2022-11-05T13:56:40.219Z,29.06
2022-11-05T13:59:07.153Z,29.06
2022-11-05T14:01:34.140Z,29.00
2022-11-05T14:04:01.153Z,29.00
2022-11-05T14:06:28.105Z,29.00
2022-11-05T14:08:55.021Z,29.00
2022-11-05T14:11:21.926Z,28.63
2022-11-05T14:13:48.846Z,28.69
2022-11-05T14:16:15.758Z,28.88
2022-11-05T14:18:42.685Z,29.06
2022-11-05T14:21:09.577Z,29.19
2022-11-05T14:23:36.487Z,29.25
2022-11-05T14:26:03.410Z,29.25
2022-11-05T14:28:30.313Z,29.25
2022-11-05T14:30:57.205Z,29.19
2022-11-05T14:33:24.111Z,29.13
2022-11-05T14:35:51.025Z,29.06
2022-11-05T14:38:17.973Z,29.00
2022-11-05T14:40:44.877Z,28.81
2022-11-05T14:43:12.036Z,28.94
2022-11-05T14:45:39.183Z,29.06
2022-11-05T14:48:06.072Z,29.19
2022-11-05T14:50:33.009Z,29.25
2022-11-05T14:52:59.936Z,29.25
2022-11-05T14:55:26.845Z,29.25
2022-11-05T14:57:53.741Z,29.25
2022-11-05T15:00:20.682Z,29.19
2022-11-05T15:02:47.588Z,29.19
2022-11-05T15:05:14.547Z,29.13
2022-11-05T15:07:41.439Z,29.00
2022-11-05T15:10:10.492Z,28.75
2022-11-05T15:12:37.623Z,28.75
2022-11-05T15:15:04.566Z,28.94
2022-11-05T15:17:31.549Z,29.06
2022-11-05T15:19:58.465Z,29.13
2022-11-05T15:22:25.420Z,29.19
2022-11-05T15:24:52.321Z,29.19
2022-11-05T15:27:19.239Z,29.13
2022-11-05T15:29:46.176Z,29.13
2022-11-05T15:32:13.071Z,29.06
2022-11-05T15:34:39.984Z,29.00
2022-11-05T15:37:06.902Z,28.94
2022-11-05T15:39:33.824Z,28.69
2022-11-05T15:42:00.739Z,28.56
2022-11-05T15:44:27.634Z,28.75
2022-11-05T15:46:54.549Z,28.88
2022-11-05T15:49:21.467Z,29.00
2022-11-05T15:51:48.393Z,29.00
2022-11-05T15:54:29.542Z,29.06
2022-11-05T15:56:57.362Z,29.06
2022-11-05T15:59:24.294Z,29.06
2022-11-05T16:01:51.291Z,29.00
2022-11-05T16:04:18.277Z,29.06
2022-11-05T16:06:45.195Z,29.00
2022-11-05T16:09:12.103Z,28.94
2022-11-05T16:11:39.019Z,28.63
2022-11-05T16:14:05.934Z,28.69
2022-11-05T16:16:32.833Z,28.94
2022-11-05T16:18:59.740Z,29.13
2022-11-05T16:21:26.658Z,29.25
2022-11-05T16:23:53.598Z,29.38
2022-11-05T16:26:41.207Z,29.44
2022-11-05T16:29:07.454Z,29.50
2022-11-05T16:31:34.384Z,29.50
2022-11-05T16:34:01.297Z,29.50
2022-11-05T16:36:28.201Z,29.44
2022-11-05T16:38:55.144Z,29.38
2022-11-05T16:41:22.066Z,29.31
2022-11-05T16:43:49.011Z,29.00
2022-11-05T16:46:15.940Z,28.94
2022-11-05T16:48:42.882Z,29.06
2022-11-05T16:51:09.782Z,29.13
2022-11-05T16:53:36.686Z,29.13
2022-11-05T16:56:03.598Z,29.13
2022-11-05T16:58:30.544Z,29.13
2022-11-05T17:00:57.579Z,29.13
2022-11-05T17:03:24.524Z,29.13
2022-11-05T17:05:51.439Z,29.13
2022-11-05T17:08:18.345Z,29.06
2022-11-05T17:10:45.237Z,29.13
2022-11-05T17:13:12.166Z,29.00
2022-11-05T17:15:39.073Z,28.69
2022-11-05T17:18:05.995Z,28.75
2022-11-05T17:20:39.416Z,29.00
2022-11-05T17:23:07.117Z,29.13
2022-11-05T17:25:34.084Z,29.25
2022-11-05T17:28:00.998Z,29.31
2022-11-05T17:30:27.907Z,29.31
2022-11-05T17:32:54.888Z,29.31
2022-11-05T17:35:21.904Z,29.31
2022-11-05T17:37:48.811Z,29.25
2022-11-05T17:40:15.718Z,29.19
2022-11-05T17:42:42.626Z,29.13
2022-11-05T17:45:09.546Z,29.06
2022-11-05T17:47:36.453Z,28.94
2022-11-05T17:50:03.410Z,29.00
2022-11-05T17:52:30.345Z,29.06
2022-11-05T17:54:57.265Z,29.13
2022-11-05T17:57:24.189Z,29.13
2022-11-05T17:59:51.119Z,29.13
2022-11-05T18:02:18.116Z,29.13
2022-11-05T18:04:45.065Z,29.06
2022-11-05T18:07:11.971Z,29.06
2022-11-05T18:09:38.873Z,29.13
2022-11-05T18:12:05.774Z,29.13
2022-11-05T18:14:32.665Z,29.00
2022-11-05T18:16:59.611Z,28.81
2022-11-05T18:19:26.522Z,28.94
2022-11-05T18:21:53.447Z,29.06
2022-11-05T18:24:20.362Z,29.19
2022-11-05T18:26:47.274Z,29.25
2022-11-05T18:29:14.200Z,29.44
2022-11-05T18:31:41.102Z,29.50
2022-11-05T18:34:08.007Z,29.56
2022-11-05T18:36:34.951Z,29.56
2022-11-05T18:39:01.863Z,29.56
2022-11-05T18:41:28.772Z,29.50
2022-11-05T18:43:55.682Z,29.50
2022-11-05T18:46:51.188Z,29.44
2022-11-05T18:49:09.498Z,29.31
2022-11-05T18:51:36.416Z,29.06
2022-11-05T18:54:03.330Z,29.00
2022-11-05T18:56:30.245Z,29.06
2022-11-05T18:59:21.974Z,29.19
2022-11-05T19:01:44.153Z,29.19
2022-11-05T19:04:11.114Z,29.25
2022-11-05T19:06:38.016Z,29.25
2022-11-05T19:09:04.905Z,29.25
2022-11-05T19:11:31.820Z,29.19
2022-11-05T19:13:58.723Z,29.19
2022-11-05T19:16:25.609Z,29.13
2022-11-05T19:18:52.528Z,29.06
2022-11-05T19:21:19.459Z,29.06
2022-11-05T19:23:46.366Z,29.06
2022-11-05T19:26:13.281Z,29.13
2022-11-05T19:28:40.187Z,29.19
2022-11-05T19:31:07.104Z,29.25
2022-11-05T19:33:34.051Z,29.31
2022-11-05T19:36:00.961Z,29.38
2022-11-05T19:38:27.849Z,29.50
2022-11-05T19:40:54.763Z,29.63
2022-11-05T19:43:21.660Z,29.81
2022-11-05T19:45:48.601Z,29.88
2022-11-05T19:48:19.501Z,29.94
2022-11-05T19:50:47.017Z,29.94
2022-11-05T19:53:13.932Z,29.94
2022-11-05T19:55:40.846Z,29.88
2022-11-05T19:58:07.760Z,29.88
2022-11-05T20:00:34.653Z,29.81
2022-11-05T20:03:01.659Z,29.69
2022-11-05T20:05:28.589Z,29.63
2022-11-05T20:07:55.510Z,29.44
2022-11-05T20:10:22.428Z,29.31
2022-11-05T20:12:49.344Z,29.13
2022-11-05T20:15:16.245Z,28.94
2022-11-05T20:17:43.154Z,28.81
2022-11-05T20:20:10.073Z,28.69
2022-11-05T20:22:36.961Z,28.56
2022-11-05T20:25:03.853Z,28.44
2022-11-05T20:27:30.762Z,28.31
2022-11-05T20:29:59.453Z,28.25
2022-11-05T20:32:26.367Z,28.13
2022-11-05T20:34:53.279Z,28.00
2022-11-05T20:37:20.173Z,27.81
2022-11-05T20:39:47.134Z,27.75
2022-11-05T20:42:14.040Z,27.63
2022-11-05T20:44:40.986Z,27.44
2022-11-05T20:47:07.890Z,27.25
2022-11-05T20:49:34.778Z,27.13
2022-11-05T20:52:01.718Z,27.00
2022-11-05T20:54:28.644Z,26.88
2022-11-05T20:56:55.556Z,26.75
2022-11-05T20:59:22.467Z,26.63
2022-11-05T21:01:49.456Z,26.50
2022-11-05T21:04:16.370Z,26.38
2022-11-05T21:06:43.270Z,26.25
2022-11-05T21:09:10.164Z,26.13
2022-11-05T21:11:37.078Z,26.00
2022-11-05T21:14:03.974Z,25.88
2022-11-05T21:16:30.873Z,25.81
2022-11-05T21:18:57.758Z,25.69
2022-11-05T21:21:24.722Z,25.63
2022-11-05T21:23:51.647Z,25.50
2022-11-05T21:26:18.631Z,25.38
2022-11-05T21:28:45.573Z,25.31
2022-11-05T21:31:12.538Z,25.19
2022-11-05T21:33:39.447Z,25.13
2022-11-05T21:36:06.365Z,25.06
2022-11-05T21:38:33.329Z,25.00
2022-11-05T21:41:00.283Z,24.88
2022-11-05T21:43:27.972Z,24.81
2022-11-05T21:45:54.917Z,24.75
2022-11-05T21:48:21.831Z,24.69
2022-11-05T21:50:48.735Z,24.56
2022-11-05T21:53:15.633Z,24.50
2022-11-05T21:55:42.535Z,24.44
2022-11-05T21:58:09.615Z,24.38
2022-11-05T22:00:36.794Z,24.31
2022-11-05T22:03:03.684Z,24.25
2022-11-05T22:05:30.614Z,24.19
2022-11-05T22:07:57.529Z,24.13
2022-11-05T22:10:24.427Z,24.06
2022-11-05T22:12:51.319Z,24.06
2022-11-05T22:15:18.254Z,24.00
2022-11-05T22:17:47.227Z,24.00
2022-11-05T22:20:14.292Z,24.00
2022-11-05T22:22:41.225Z,24.00
2022-11-05T22:25:08.134Z,24.00
2022-11-05T22:27:35.022Z,24.00
2022-11-05T22:30:01.942Z,24.00
2022-11-05T22:32:28.859Z,23.94
2022-11-05T22:34:55.745Z,23.94
2022-11-05T22:37:22.654Z,23.88
2022-11-05T22:39:49.560Z,23.81
2022-11-05T22:42:16.600Z,23.75
2022-11-05T22:44:43.541Z,23.69
2022-11-05T22:47:10.437Z,23.63
2022-11-05T22:49:37.342Z,23.56
2022-11-05T22:52:04.253Z,23.50
2022-11-05T22:54:36.351Z,23.44
2022-11-05T22:57:05.867Z,23.38
2022-11-05T22:59:32.805Z,23.25
2022-11-05T23:02:01.878Z,23.19
2022-11-05T23:04:32.122Z,23.13
2022-11-05T23:06:59.032Z,23.06
2022-11-05T23:09:25.943Z,23.00
2022-11-05T23:11:52.877Z,22.94
2022-11-05T23:14:19.788Z,22.88
2022-11-05T23:16:46.716Z,22.81
2022-11-05T23:19:13.686Z,22.75
2022-11-05T23:21:40.583Z,22.69
2022-11-05T23:24:07.512Z,22.63
2022-11-05T23:26:34.429Z,22.56
2022-11-05T23:29:01.324Z,22.50
2022-11-05T23:31:28.272Z,22.44
2022-11-05T23:33:55.174Z,22.44
2022-11-05T23:36:22.072Z,22.38
2022-11-05T23:38:48.974Z,22.31
2022-11-05T23:41:15.893Z,22.25
2022-11-05T23:43:42.801Z,22.19
2022-11-05T23:46:09.707Z,22.13
2022-11-05T23:48:36.617Z,22.13
2022-11-05T23:51:03.536Z,22.06
2022-11-05T23:53:30.507Z,22.00
2022-11-05T23:55:57.474Z,22.00
2022-11-05T23:58:24.440Z,21.94
